createdAt,value
2022-11-10T00:00:43.457Z,10.48
2022-11-10T00:03:12.547Z,11.25
2022-11-10T00:05:41.050Z,9.80
2022-11-10T00:08:12.190Z,12.90
2022-11-10T00:10:55.223Z,12.65
2022-11-10T00:13:26.517Z,7.68
2022-11-10T00:16:12.952Z,8.45
2022-11-10T00:18:41.258Z,6.95
2022-11-10T00:21:11.253Z,9.52
2022-11-10T00:23:40.348Z,13.15
2022-11-10T00:26:16.492Z,11.70
2022-11-10T00:28:47.254Z,13.63
2022-11-10T00:31:15.610Z,11.25
2022-11-10T00:33:45.288Z,14.40
2022-11-10T00:36:13.606Z,13.38
2022-11-10T00:38:41.906Z,9.40
2022-11-10T00:41:10.401Z,8.85
2022-11-10T00:43:38.712Z,12.65
2022-11-10T00:46:08.499Z,13.32
2022-11-10T00:48:36.857Z,13.18
2022-11-10T00:51:05.732Z,10.60
2022-11-10T00:53:34.295Z,10.00
2022-11-10T00:56:02.634Z,8.90
2022-11-10T00:58:30.955Z,9.27
2022-11-10T01:01:03.230Z,10.32
2022-11-10T01:03:34.529Z,7.78
2022-11-10T01:06:06.434Z,9.00
2022-11-10T01:08:34.863Z,15.63
2022-11-10T01:11:03.963Z,12.57
2022-11-10T01:13:32.585Z,14.57
2022-11-10T01:16:05.387Z,12.25
2022-11-10T01:18:35.750Z,9.65
2022-11-10T01:21:05.028Z,9.70
2022-11-10T01:23:33.877Z,8.38
2022-11-10T01:26:03.994Z,9.90
2022-11-10T01:28:33.389Z,7.22
2022-11-10T01:31:03.797Z,8.20
2022-11-10T01:33:32.290Z,8.43
2022-11-10T01:36:02.444Z,11.38
2022-11-10T01:38:32.965Z,12.57
2022-11-10T01:41:02.149Z,7.95
2022-11-10T01:43:30.533Z,9.02
2022-11-10T01:46:01.472Z,10.85
2022-11-10T01:48:34.932Z,11.45
2022-11-10T01:51:09.972Z,10.87
2022-11-10T01:53:42.237Z,7.10
2022-11-10T01:56:13.645Z,8.88
2022-11-10T01:58:51.335Z,9.30
2022-11-10T02:01:20.002Z,9.70
2022-11-10T02:03:51.421Z,8.40
2022-11-10T02:06:23.910Z,8.48
2022-11-10T02:08:53.443Z,9.73
2022-11-10T02:11:22.516Z,9.30
2022-11-10T02:13:51.357Z,8.05
2022-11-10T02:16:20.509Z,10.05
2022-11-10T02:18:49.360Z,9.23
2022-11-10T02:21:19.075Z,10.35
2022-11-10T02:23:49.967Z,10.07
2022-11-10T02:26:22.996Z,8.60
2022-11-10T02:28:51.604Z,12.80
2022-11-10T02:31:19.930Z,10.23
2022-11-10T02:33:48.381Z,12.18
2022-11-10T02:36:16.728Z,9.07
2022-11-10T02:38:46.420Z,9.20
2022-11-10T02:41:14.829Z,8.68
2022-11-10T02:43:43.306Z,11.20
2022-11-10T02:46:11.646Z,7.75
2022-11-10T02:48:39.950Z,6.20
2022-11-10T02:51:08.280Z,9.32
2022-11-10T02:53:36.678Z,10.25
2022-11-10T02:56:07.402Z,9.95
2022-11-10T02:58:35.738Z,8.15
2022-11-10T03:01:06.956Z,8.52
2022-11-10T03:03:36.182Z,11.70
2022-11-10T03:06:04.626Z,10.27
2022-11-10T03:08:32.961Z,9.52
2022-11-10T03:11:01.311Z,8.77
2022-11-10T03:13:45.244Z,9.73
2022-11-10T03:16:20.084Z,11.32
2022-11-10T03:18:48.378Z,11.43
2022-11-10T03:21:16.689Z,12.77
2022-11-10T03:23:45.022Z,8.48
2022-11-10T03:26:14.316Z,11.00
2022-11-10T03:28:44.061Z,11.70
2022-11-10T03:31:12.339Z,10.80
2022-11-10T03:33:40.641Z,10.23
2022-11-10T03:36:09.282Z,8.55
2022-11-10T03:38:37.588Z,8.82
2022-11-10T03:41:19.323Z,11.65
2022-11-10T03:43:50.025Z,12.18
2022-11-10T03:46:18.796Z,10.90
2022-11-10T03:48:52.880Z,8.35
2022-11-10T03:51:22.551Z,8.52
2022-11-10T03:53:51.165Z,11.63
2022-11-10T03:56:19.585Z,10.45
2022-11-10T03:58:49.300Z,10.63
2022-11-10T04:01:17.682Z,6.75
2022-11-10T04:03:51.051Z,10.07
2022-11-10T04:06:38.076Z,12.32
2022-11-10T04:09:07.043Z,9.35
2022-11-10T04:11:52.850Z,10.32
2022-11-10T04:14:40.479Z,9.85
2022-11-10T04:17:09.597Z,9.02
2022-11-10T04:19:37.952Z,12.10
2022-11-10T04:22:06.274Z,11.80
2022-11-10T04:24:34.877Z,8.18
2022-11-10T04:27:03.205Z,12.95
2022-11-10T04:29:32.946Z,13.50
2022-11-10T04:32:01.278Z,10.93
2022-11-10T04:34:29.579Z,10.43
2022-11-10T04:36:57.896Z,8.77
2022-11-10T04:39:26.245Z,12.90
2022-11-10T04:41:58.449Z,13.32
2022-11-10T04:44:32.101Z,14.50
2022-11-10T04:47:00.505Z,10.45
2022-11-10T04:49:29.047Z,17.15
2022-11-10T04:51:57.411Z,11.43
2022-11-10T04:54:25.788Z,12.20
2022-11-10T04:56:54.146Z,13.13
2022-11-10T04:59:22.681Z,13.90
2022-11-10T05:01:52.330Z,12.57
2022-11-10T05:04:20.811Z,13.75
2022-11-10T05:06:49.142Z,10.07
2022-11-10T05:09:17.458Z,14.65
2022-11-10T05:11:45.763Z,11.05
2022-11-10T05:14:14.052Z,10.40
2022-11-10T05:16:42.371Z,12.10
2022-11-10T05:19:12.304Z,10.38
2022-11-10T05:21:40.624Z,19.23
2022-11-10T05:24:09.146Z,11.57
2022-11-10T05:26:37.466Z,13.52
2022-11-10T05:29:05.799Z,9.18
2022-11-10T05:31:34.150Z,14.80
2022-11-10T05:34:02.657Z,17.55
2022-11-10T05:36:32.364Z,14.98
2022-11-10T05:39:00.709Z,14.52
2022-11-10T05:41:29.137Z,14.35
2022-11-10T05:43:57.468Z,11.38
2022-11-10T05:46:25.774Z,12.70
2022-11-10T05:48:54.118Z,19.35
2022-11-10T05:51:22.399Z,29.27
2022-11-10T05:53:52.083Z,12.70
2022-11-10T05:56:20.519Z,12.40
2022-11-10T05:58:48.826Z,12.82
2022-11-10T06:01:17.228Z,14.68
2022-11-10T06:03:45.938Z,14.38
2022-11-10T06:06:14.319Z,14.57
2022-11-10T06:08:42.617Z,13.60
2022-11-10T06:11:12.753Z,15.02
2022-11-10T06:13:41.114Z,11.15
2022-11-10T06:16:09.492Z,14.82
2022-11-10T06:18:37.865Z,17.85
2022-11-10T06:21:06.386Z,14.23
2022-11-10T06:23:34.804Z,15.73
2022-11-10T06:26:03.101Z,15.60
2022-11-10T06:28:32.854Z,12.07
2022-11-10T06:31:01.233Z,17.00
2022-11-10T06:33:30.526Z,11.70
2022-11-10T06:35:58.844Z,14.07
2022-11-10T06:38:27.186Z,17.48
2022-11-10T06:40:55.622Z,15.05
2022-11-10T06:43:24.465Z,13.88
2022-11-10T06:45:54.317Z,11.38
2022-11-10T06:48:22.648Z,11.13
2022-11-10T06:50:50.993Z,14.75
2022-11-10T06:53:24.324Z,21.00
2022-11-10T06:55:55.301Z,14.90
2022-11-10T06:58:23.682Z,16.02
2022-11-10T07:00:52.228Z,17.20
2022-11-10T07:03:22.588Z,14.48
2022-11-10T07:05:51.137Z,16.33
2022-11-10T07:08:19.645Z,15.35
2022-11-10T07:10:54.260Z,15.85
2022-11-10T07:13:23.433Z,14.30
2022-11-10T07:15:52.325Z,18.33
2022-11-10T07:18:23.375Z,15.77
2022-11-10T07:20:51.706Z,17.77
2022-11-10T07:23:20.488Z,15.18
2022-11-10T07:25:49.035Z,17.80
2022-11-10T07:28:17.456Z,13.55
2022-11-10T07:30:45.877Z,16.05
2022-11-10T07:33:15.953Z,17.90
2022-11-10T07:35:51.884Z,18.45
2022-11-10T07:38:20.204Z,15.25
2022-11-10T07:40:51.845Z,17.83
2022-11-10T07:43:21.277Z,14.15
2022-11-10T07:45:50.468Z,14.55
2022-11-10T07:48:19.538Z,15.43
2022-11-10T07:50:49.417Z,16.83
2022-11-10T07:53:21.298Z,16.95
2022-11-10T07:55:49.906Z,15.90
2022-11-10T07:58:19.324Z,17.08
2022-11-10T08:00:48.289Z,15.60
2022-11-10T08:03:18.979Z,19.35
2022-11-10T08:05:49.283Z,16.33
2022-11-10T08:08:18.029Z,18.35
2022-11-10T08:10:46.362Z,17.38
2022-11-10T08:13:15.452Z,17.33
2022-11-10T08:15:44.099Z,15.00
2022-11-10T08:18:18.194Z,18.48
2022-11-10T08:20:47.029Z,15.50
2022-11-10T08:23:17.748Z,14.40
2022-11-10T08:25:46.876Z,16.60
2022-11-10T08:28:17.056Z,19.95
2022-11-10T08:30:47.307Z,13.38
2022-11-10T08:33:17.241Z,12.25
2022-11-10T08:35:47.441Z,17.85
2022-11-10T08:38:18.691Z,17.05
2022-11-10T08:40:47.531Z,18.75
2022-11-10T08:43:16.924Z,14.27
2022-11-10T08:45:46.273Z,16.60
2022-11-10T08:48:16.474Z,14.95
2022-11-10T08:50:45.254Z,19.02
2022-11-10T08:53:15.166Z,15.82
2022-11-10T08:55:45.767Z,15.63
2022-11-10T08:58:15.860Z,14.65
2022-11-10T09:00:44.635Z,14.68
2022-11-10T09:03:16.057Z,17.95
2022-11-10T09:05:44.843Z,18.27
2022-11-10T09:08:13.487Z,15.52
2022-11-10T09:10:45.248Z,14.10
2022-11-10T09:13:15.745Z,19.80
2022-11-10T09:15:45.081Z,12.25
2022-11-10T09:18:15.406Z,17.05
2022-11-10T09:20:43.976Z,14.90
2022-11-10T09:23:14.198Z,17.73
2022-11-10T09:25:49.286Z,12.80
2022-11-10T09:28:18.697Z,19.58
2022-11-10T09:30:47.549Z,14.25
2022-11-10T09:33:16.315Z,18.15
2022-11-10T09:35:45.140Z,13.10
2022-11-10T09:38:13.594Z,13.75
2022-11-10T09:40:56.998Z,17.73
2022-11-10T09:43:33.056Z,19.25
2022-11-10T09:46:06.969Z,15.18
2022-11-10T09:48:38.387Z,20.20
2022-11-10T09:51:09.716Z,14.73
2022-11-10T09:53:40.477Z,15.27
2022-11-10T09:56:17.778Z,15.65
2022-11-10T09:58:47.447Z,13.85
2022-11-10T10:01:26.415Z,14.40
2022-11-10T10:04:05.079Z,15.95
2022-11-10T10:06:57.104Z,13.43
2022-11-10T10:09:36.550Z,18.20
2022-11-10T10:12:20.319Z,12.68
2022-11-10T10:15:04.444Z,13.70
2022-11-10T10:17:42.367Z,17.20
2022-11-10T10:20:19.640Z,13.18
2022-11-10T10:23:01.419Z,16.75
2022-11-10T10:25:30.236Z,18.35
2022-11-10T10:28:07.814Z,12.40
2022-11-10T10:30:36.197Z,17.10
2022-11-10T10:33:17.531Z,16.13
2022-11-10T10:35:48.279Z,16.58
2022-11-10T10:38:22.959Z,16.58
2022-11-10T10:40:53.113Z,12.98
2022-11-10T10:43:22.871Z,15.52
2022-11-10T10:46:06.646Z,16.13
2022-11-10T10:48:35.629Z,12.87
2022-11-10T10:51:04.022Z,14.60
2022-11-10T10:53:32.387Z,19.52
2022-11-10T10:56:03.582Z,17.02
2022-11-10T10:58:37.144Z,14.43
2022-11-10T11:01:09.731Z,17.02
2022-11-10T11:03:43.764Z,15.10
2022-11-10T11:06:25.489Z,14.30
2022-11-10T11:09:00.301Z,14.30
2022-11-10T11:11:31.063Z,14.00
2022-11-10T11:14:20.857Z,14.05
2022-11-10T11:16:51.856Z,15.50
2022-11-10T11:19:22.457Z,18.15
2022-11-10T11:22:07.927Z,12.57
2022-11-10T11:24:44.357Z,13.65
2022-11-10T11:27:19.699Z,15.63
2022-11-10T11:30:07.549Z,16.40
2022-11-10T11:32:59.530Z,14.82
2022-11-10T11:35:34.891Z,13.15
2022-11-10T11:38:11.816Z,15.52
2022-11-10T11:40:48.632Z,17.63
2022-11-10T11:43:59.705Z,13.25
2022-11-10T11:46:38.791Z,18.85
2022-11-10T11:49:30.419Z,17.85
2022-11-10T11:52:08.354Z,14.43
2022-11-10T11:54:54.636Z,18.63
2022-11-10T11:57:39.821Z,16.50
2022-11-10T12:00:11.622Z,15.77
2022-11-10T12:02:59.522Z,22.42
2022-11-10T12:05:37.686Z,15.80
2022-11-10T12:08:21.081Z,16.35
2022-11-10T12:10:59.307Z,16.95
2022-11-10T12:13:38.189Z,12.02
2022-11-10T12:16:16.633Z,11.90
2022-11-10T12:18:57.162Z,16.40
2022-11-10T12:21:30.797Z,14.25
2022-11-10T12:24:11.269Z,16.55
2022-11-10T12:26:45.290Z,18.25
2022-11-10T12:29:23.471Z,14.23
2022-11-10T12:31:55.816Z,15.10
2022-11-10T12:34:34.719Z,11.63
2022-11-10T12:37:07.749Z,13.98
2022-11-10T12:39:47.494Z,16.65
2022-11-10T12:42:20.846Z,16.23
2022-11-10T12:45:02.305Z,12.57
2022-11-10T12:47:37.904Z,20.30
2022-11-10T12:53:03.313Z,12.63
2022-11-10T12:55:37.097Z,13.35
2022-11-10T12:58:07.289Z,18.98
2022-11-10T13:00:41.830Z,16.23
2022-11-10T13:03:16.295Z,13.57
2022-11-10T13:05:46.258Z,18.35
2022-11-10T13:08:29.088Z,20.85
2022-11-10T13:11:01.443Z,15.13
2022-11-10T13:13:30.331Z,13.93
2022-11-10T13:15:59.653Z,14.13
2022-11-10T13:18:53.595Z,10.27
2022-11-10T13:22:10.281Z,10.45
2022-11-10T13:24:39.858Z,14.20
2022-11-10T13:27:13.125Z,17.98
2022-11-10T13:29:58.908Z,17.13
2022-11-10T13:32:30.137Z,11.43
2022-11-10T13:35:31.691Z,42.55
2022-11-10T13:38:01.458Z,23.63
2022-11-10T13:40:33.953Z,23.38
2022-11-10T13:43:29.679Z,16.17
2022-11-10T13:46:04.210Z,13.10
2022-11-10T13:49:00.493Z,10.55
2022-11-10T13:51:43.804Z,18.92
2022-11-10T13:54:41.662Z,14.43
2022-11-10T13:57:23.122Z,17.73
2022-11-10T13:59:55.338Z,13.93
2022-11-10T14:02:51.914Z,15.02
2022-11-10T14:06:05.336Z,12.45
2022-11-10T14:08:44.129Z,12.32
2022-11-10T14:11:22.990Z,15.57
2022-11-10T14:13:57.454Z,17.65
2022-11-10T14:16:28.109Z,12.57
2022-11-10T14:19:04.249Z,12.25
2022-11-10T14:21:39.397Z,14.23
2022-11-10T14:24:20.089Z,16.80
2022-11-10T14:26:53.126Z,14.65
2022-11-10T14:29:33.016Z,16.42
2022-11-10T14:32:04.062Z,18.77
2022-11-10T14:34:37.370Z,16.05
2022-11-10T14:37:06.272Z,10.60
2022-11-10T14:39:36.357Z,15.02
2022-11-10T14:42:07.016Z,12.32
2022-11-10T14:44:35.966Z,11.55
2022-11-10T14:47:31.860Z,12.23
2022-11-10T14:50:18.592Z,14.07
2022-11-10T14:52:49.424Z,12.32
2022-11-10T14:55:21.712Z,10.40
2022-11-10T14:57:55.134Z,15.93
2022-11-10T15:00:27.169Z,16.57
2022-11-10T15:02:58.084Z,28.00
2022-11-10T15:05:26.901Z,26.77
2022-11-10T15:07:57.182Z,23.55
2022-11-10T15:10:27.971Z,29.88
2022-11-10T15:13:02.864Z,23.65
2022-11-10T15:15:31.663Z,19.33
2022-11-10T15:18:00.277Z,12.07
2022-11-10T15:20:37.562Z,17.67
2022-11-10T15:23:16.475Z,16.20
2022-11-10T15:25:53.063Z,13.38
2022-11-10T15:28:34.425Z,18.40
2022-11-10T15:31:05.414Z,33.85
2022-11-10T15:33:37.593Z,36.08
2022-11-10T15:36:21.566Z,25.98
2022-11-10T15:39:03.150Z,16.33
2022-11-10T15:41:34.534Z,20.85
2022-11-10T15:44:21.841Z,19.38
2022-11-10T15:46:53.848Z,22.35
2022-11-10T15:49:26.141Z,19.20
2022-11-10T15:51:58.692Z,20.77
2022-11-10T15:54:30.496Z,14.95
2022-11-10T15:56:58.795Z,14.75
2022-11-10T15:59:28.551Z,17.27
2022-11-10T16:01:57.250Z,16.92
2022-11-10T16:04:28.035Z,21.45
2022-11-10T16:06:57.161Z,22.38
2022-11-10T16:09:25.603Z,12.68
2022-11-10T16:11:54.031Z,16.75
2022-11-10T16:14:22.765Z,18.63
2022-11-10T16:16:52.872Z,18.95
2022-11-10T16:19:21.238Z,18.23
2022-11-10T16:21:49.965Z,18.42
2022-11-10T16:24:18.410Z,16.92
2022-11-10T16:26:46.848Z,15.70
2022-11-10T16:29:18.936Z,17.17
2022-11-10T16:31:47.443Z,16.20
2022-11-10T16:34:17.242Z,13.00
2022-11-10T16:36:48.248Z,22.08
2022-11-10T16:39:18.602Z,17.10
2022-11-10T16:41:47.039Z,16.63
2022-11-10T16:44:16.723Z,20.25
2022-11-10T16:46:48.956Z,18.65
2022-11-10T16:49:26.078Z,16.10
2022-11-10T16:51:54.477Z,19.70
2022-11-10T16:54:22.946Z,18.38
2022-11-10T16:56:51.350Z,20.27
2022-11-10T16:59:19.690Z,21.08
2022-11-10T17:01:49.054Z,18.88
2022-11-10T17:04:17.845Z,19.25
2022-11-10T17:06:47.679Z,17.08
2022-11-10T17:09:19.267Z,17.10
2022-11-10T17:11:47.632Z,16.73
2022-11-10T17:14:16.514Z,16.73
2022-11-10T17:16:46.837Z,19.52
2022-11-10T17:19:19.925Z,19.85
2022-11-10T17:21:51.717Z,25.52
2022-11-10T17:24:20.390Z,25.35
2022-11-10T17:26:49.204Z,37.80
2022-11-10T17:29:18.785Z,24.25
2022-11-10T17:31:47.294Z,19.13
2022-11-10T17:34:15.632Z,20.60
2022-11-10T17:36:43.958Z,21.48
2022-11-10T17:39:15.763Z,22.05
2022-11-10T17:41:44.254Z,15.32
2022-11-10T17:44:14.219Z,24.55
2022-11-10T17:46:42.793Z,24.15
2022-11-10T17:49:11.134Z,26.42
2022-11-10T17:51:40.451Z,17.55
2022-11-10T17:54:15.018Z,14.23
2022-11-10T17:56:43.388Z,19.05
2022-11-10T17:59:11.789Z,13.65
2022-11-10T18:01:40.333Z,17.10
2022-11-10T18:04:13.361Z,22.55
2022-11-10T18:06:41.917Z,15.27
2022-11-10T18:09:10.432Z,18.45
2022-11-10T18:11:40.259Z,15.90
2022-11-10T18:14:11.774Z,14.88
2022-11-10T18:16:40.142Z,21.08
2022-11-10T18:19:09.448Z,14.82
2022-11-10T18:21:37.838Z,17.20
2022-11-10T18:24:06.530Z,16.17
2022-11-10T18:26:34.895Z,13.10
2022-11-10T18:29:04.709Z,15.05
2022-11-10T18:31:33.068Z,16.08
2022-11-10T18:34:01.389Z,19.23
2022-11-10T18:36:29.696Z,15.20
2022-11-10T18:38:58.054Z,17.33
2022-11-10T18:41:43.736Z,17.42
2022-11-10T18:44:13.657Z,15.90
2022-11-10T18:46:43.166Z,19.55
2022-11-10T18:49:11.551Z,17.45
2022-11-10T18:51:39.993Z,19.42
2022-11-10T18:54:08.339Z,18.75
2022-11-10T18:56:36.698Z,13.85
2022-11-10T18:59:05.186Z,18.20
2022-11-10T19:01:35.133Z,14.82
2022-11-10T19:04:03.790Z,14.27
2022-11-10T19:06:32.192Z,16.83
2022-11-10T19:09:00.647Z,15.43
2022-11-10T19:11:29.323Z,15.95
2022-11-10T19:14:00.712Z,14.27
2022-11-10T19:16:29.978Z,15.05
2022-11-10T19:18:59.722Z,19.55
2022-11-10T19:21:28.561Z,20.77
2022-11-10T19:23:57.345Z,22.30
2022-11-10T19:26:27.317Z,23.17
2022-11-10T19:28:56.487Z,18.48
2022-11-10T19:31:26.464Z,20.45
2022-11-10T19:33:56.587Z,18.63
2022-11-10T19:36:27.966Z,14.70
2022-11-10T19:38:56.823Z,14.75
2022-11-10T19:41:26.998Z,12.32
2022-11-10T19:43:55.960Z,15.10
2022-11-10T19:46:25.525Z,17.50
2022-11-10T19:48:54.377Z,15.30
2022-11-10T19:51:24.864Z,16.25
2022-11-10T19:54:01.292Z,15.85
2022-11-10T19:56:32.266Z,19.95
2022-11-10T19:59:00.922Z,14.30
2022-11-10T20:01:29.366Z,16.85
2022-11-10T20:03:59.977Z,15.98
2022-11-10T20:06:28.354Z,17.55
2022-11-10T20:08:58.082Z,15.68
2022-11-10T20:11:27.882Z,16.83
2022-11-10T20:13:59.048Z,15.18
2022-11-10T20:16:27.448Z,13.98
2022-11-10T20:18:55.794Z,15.15
2022-11-10T20:21:24.314Z,19.17
2022-11-10T20:23:53.727Z,12.90
2022-11-10T20:26:24.833Z,15.55
2022-11-10T20:28:53.204Z,14.55
2022-11-10T20:31:24.408Z,14.50
2022-11-10T20:33:55.521Z,16.05
2022-11-10T20:36:26.754Z,14.55
2022-11-10T20:38:56.994Z,19.17
2022-11-10T20:41:29.587Z,15.07
2022-11-10T20:43:58.159Z,15.30
2022-11-10T20:46:53.418Z,16.45
2022-11-10T20:49:14.820Z,19.45
2022-11-10T20:51:43.438Z,20.98
2022-11-10T20:54:11.786Z,16.80
2022-11-10T20:56:41.565Z,16.58
2022-11-10T20:59:10.005Z,13.43
2022-11-10T21:01:38.642Z,14.98
2022-11-10T21:04:07.225Z,14.88
2022-11-10T21:06:35.629Z,13.93
2022-11-10T21:09:05.413Z,20.67
2022-11-10T21:11:51.632Z,18.65
2022-11-10T21:14:21.439Z,21.38
2022-11-10T21:16:49.804Z,16.10
2022-11-10T21:19:18.384Z,14.82
2022-11-10T21:21:46.827Z,17.77
2022-11-10T21:24:15.113Z,15.98
2022-11-10T21:26:43.452Z,13.98
2022-11-10T21:29:11.806Z,14.20
2022-11-10T21:31:41.862Z,14.05
2022-11-10T21:34:10.924Z,16.98
2022-11-10T21:36:39.532Z,16.83
2022-11-10T21:39:07.984Z,18.77
2022-11-10T21:41:36.341Z,15.63
2022-11-10T21:44:04.839Z,19.55
2022-11-10T21:46:33.166Z,16.17
2022-11-10T21:49:07.381Z,18.77
2022-11-10T21:51:36.267Z,17.08
2022-11-10T21:54:04.638Z,18.20
2022-11-10T21:56:33.009Z,14.07
2022-11-10T21:59:01.358Z,14.30
2022-11-10T22:01:29.705Z,15.70
2022-11-10T22:03:58.051Z,14.07
2022-11-10T22:06:48.678Z,20.40
2022-11-10T22:09:37.773Z,19.35
2022-11-10T22:12:22.693Z,16.73
2022-11-10T22:15:08.602Z,22.15
2022-11-10T22:17:54.325Z,18.83
2022-11-10T22:20:22.608Z,18.00
2022-11-10T22:22:52.313Z,15.52
2022-11-10T22:25:20.633Z,16.38
2022-11-10T22:27:49.013Z,17.10
2022-11-10T22:30:17.425Z,15.88
2022-11-10T22:32:45.781Z,14.82
2022-11-10T22:35:34.220Z,17.45
2022-11-10T22:38:07.581Z,14.52
2022-11-10T22:40:54.131Z,13.48
2022-11-10T22:43:40.134Z,12.65
2022-11-10T22:46:08.486Z,15.57
2022-11-10T22:48:36.784Z,18.42
2022-11-10T22:51:05.215Z,21.10
2022-11-10T22:53:38.288Z,19.08
2022-11-10T22:56:07.036Z,19.48
2022-11-10T22:58:35.546Z,15.52
2022-11-10T23:01:05.953Z,14.10
2022-11-10T23:03:35.131Z,14.60
2022-11-10T23:06:03.701Z,16.98
2022-11-10T23:08:33.910Z,16.90
2022-11-10T23:11:03.524Z,16.10
2022-11-10T23:13:33.305Z,15.30
2022-11-10T23:16:04.342Z,16.48
2022-11-10T23:18:32.649Z,15.25
2022-11-10T23:21:02.769Z,18.33
2022-11-10T23:23:34.715Z,14.93
2022-11-10T23:26:05.386Z,13.52
2022-11-10T23:28:34.618Z,18.60
2022-11-10T23:31:04.196Z,19.02
2022-11-10T23:33:33.562Z,17.92
2022-11-10T23:36:03.038Z,14.32
2022-11-10T23:38:32.743Z,18.55
2022-11-10T23:41:04.160Z,15.00
2022-11-10T23:43:32.730Z,17.42
2022-11-10T23:46:08.526Z,16.50
2022-11-10T23:48:37.246Z,21.58
2022-11-10T23:51:06.555Z,18.48
2022-11-10T23:53:34.951Z,19.52
2022-11-10T23:56:07.007Z,15.93
2022-11-10T23:58:35.354Z,21.60
